createdAt,value
2023-01-03T00:00:31.916Z,1012.83
2023-01-03T00:01:02.591Z,1012.63
2023-01-03T00:01:35.608Z,1012.73
2023-01-03T00:02:06.695Z,1012.73
2023-01-03T00:02:35.404Z,1012.53
2023-01-03T00:02:54.689Z,1012.53
2023-01-03T00:03:26.831Z,1012.53
2023-01-03T00:03:59.319Z,1012.43
2023-01-03T00:04:30.844Z,1012.43
2023-01-03T00:05:02.849Z,1012.73
2023-01-03T00:05:34.764Z,1012.63
2023-01-03T00:06:07.427Z,1012.63
2023-01-03T00:06:35.463Z,1012.83
2023-01-03T00:06:54.663Z,1012.83
2023-01-03T00:07:26.611Z,1012.83
2023-01-03T00:07:58.628Z,1012.73
2023-01-03T00:08:30.666Z,1012.73
2023-01-03T00:09:02.627Z,1012.73
2023-01-03T00:09:34.260Z,1012.73
2023-01-03T00:09:50.506Z,1012.73
2023-01-03T00:10:35.494Z,1012.73
2023-01-03T00:10:54.757Z,1012.73
2023-01-03T00:11:26.585Z,1012.73
2023-01-03T00:11:58.730Z,1012.73
2023-01-03T00:12:31.308Z,1012.73
2023-01-03T00:13:02.557Z,1012.73
2023-01-03T00:13:35.182Z,1012.83
2023-01-03T00:14:06.720Z,1012.83
2023-01-03T00:14:34.495Z,1012.63
2023-01-03T00:14:55.431Z,1012.63
2023-01-03T00:15:26.781Z,1012.63
2023-01-03T00:15:59.323Z,1012.83
2023-01-03T00:16:30.717Z,1012.83
2023-01-03T00:17:03.601Z,1012.63
2023-01-03T00:17:34.201Z,1013.04
2023-01-03T00:17:50.519Z,1013.04
2023-01-03T00:18:22.650Z,1013.04
2023-01-03T00:18:40.041Z,1012.83
2023-01-03T00:19:11.309Z,1012.83
2023-01-03T00:19:34.331Z,1012.73
2023-01-03T00:19:58.714Z,1012.73
2023-01-03T00:20:30.969Z,1012.73
2023-01-03T00:21:02.749Z,1012.83
2023-01-03T00:21:35.606Z,1012.63
2023-01-03T00:22:06.722Z,1012.63
2023-01-03T00:22:34.957Z,1013.04
2023-01-03T00:22:54.545Z,1013.04
2023-01-03T00:23:27.352Z,1013.04
2023-01-03T00:23:58.670Z,1012.93
2023-01-03T00:24:31.225Z,1012.93
2023-01-03T00:25:02.695Z,1012.93
2023-01-03T00:25:36.155Z,1012.73
2023-01-03T00:26:06.651Z,1012.73
2023-01-03T00:26:33.930Z,1012.93
2023-01-03T00:26:56.033Z,1012.93
2023-01-03T00:27:26.648Z,1012.93
2023-01-03T00:27:59.470Z,1012.73
2023-01-03T00:28:30.663Z,1012.73
2023-01-03T00:29:03.558Z,1013.04
2023-01-03T00:29:34.125Z,1012.93
2023-01-03T00:29:50.490Z,1012.93
2023-01-03T00:30:23.994Z,1012.93
2023-01-03T00:30:40.172Z,1012.83
2023-01-03T00:31:11.464Z,1012.83
2023-01-03T00:31:34.158Z,1012.73
2023-01-03T00:31:58.711Z,1012.73
2023-01-03T00:32:30.600Z,1012.73
2023-01-03T00:33:02.614Z,1012.93
2023-01-03T00:33:34.272Z,1012.93
2023-01-03T00:33:50.634Z,1012.93
2023-01-03T00:34:23.379Z,1012.93
2023-01-03T00:34:40.636Z,1012.93
2023-01-03T00:35:10.843Z,1012.93
2023-01-03T00:35:34.156Z,1013.04
2023-01-03T00:35:58.767Z,1013.04
2023-01-03T00:36:31.325Z,1013.04
2023-01-03T00:37:02.516Z,1012.93
2023-01-03T00:37:35.315Z,1013.04
2023-01-03T00:38:06.687Z,1013.04
2023-01-03T00:38:34.060Z,1012.83
2023-01-03T00:38:54.570Z,1012.83
2023-01-03T00:39:26.718Z,1012.83
2023-01-03T00:40:00.332Z,1012.93
2023-01-03T00:40:30.624Z,1012.93
2023-01-03T00:41:03.614Z,1012.93
2023-01-03T00:41:34.015Z,1012.93
2023-01-03T00:41:50.563Z,1012.93
2023-01-03T00:42:22.712Z,1012.93
2023-01-03T00:42:39.767Z,1012.83
2023-01-03T00:43:11.346Z,1012.83
2023-01-03T00:43:34.243Z,1013.04
2023-01-03T00:43:58.740Z,1013.04
2023-01-03T00:44:30.654Z,1013.04
2023-01-03T00:45:02.910Z,1012.83
2023-01-03T00:45:35.683Z,1012.93
2023-01-03T00:46:06.667Z,1012.93
2023-01-03T00:46:34.161Z,1013.14
2023-01-03T00:46:54.655Z,1013.14
2023-01-03T00:47:27.146Z,1013.14
2023-01-03T00:47:58.565Z,1012.83
2023-01-03T00:48:31.445Z,1012.83
2023-01-03T00:49:02.727Z,1013.04
2023-01-03T00:49:34.837Z,1013.24
2023-01-03T00:50:06.670Z,1013.24
2023-01-03T00:50:34.103Z,1013.04
2023-01-03T00:50:54.964Z,1013.04
2023-01-03T00:51:26.665Z,1013.04
2023-01-03T00:51:59.469Z,1012.93
2023-01-03T00:52:30.665Z,1012.93
2023-01-03T00:53:03.250Z,1012.93
2023-01-03T00:53:35.213Z,1013.14
2023-01-03T00:54:07.386Z,1013.14
2023-01-03T00:54:34.120Z,1012.83
2023-01-03T00:55:11.534Z,1012.83
2023-01-03T00:55:33.977Z,1013.14
2023-01-03T00:55:58.728Z,1013.14
2023-01-03T00:56:30.827Z,1013.14
2023-01-03T00:57:02.686Z,1013.04
2023-01-03T00:57:34.278Z,1013.14
2023-01-03T00:57:50.685Z,1013.14
2023-01-03T00:58:23.317Z,1013.14
2023-01-03T00:58:40.525Z,1012.93
2023-01-03T00:59:10.704Z,1012.93
2023-01-03T00:59:34.007Z,1013.04
2023-01-03T00:59:58.587Z,1013.04
2023-01-03T01:00:31.660Z,1013.04
2023-01-03T01:01:02.784Z,1013.14
2023-01-03T01:01:44.028Z,1013.04
2023-01-03T01:02:06.772Z,1013.04
2023-01-03T01:02:34.389Z,1013.04
2023-01-03T01:02:54.874Z,1013.04
2023-01-03T01:03:26.817Z,1013.04
2023-01-03T01:03:59.292Z,1013.04
2023-01-03T01:04:30.639Z,1013.04
2023-01-03T01:05:03.495Z,1013.14
2023-01-03T01:05:34.147Z,1013.04
2023-01-03T01:05:50.664Z,1013.04
2023-01-03T01:06:22.751Z,1013.04
2023-01-03T01:06:39.857Z,1013.04
2023-01-03T01:07:11.338Z,1013.04
2023-01-03T01:07:34.125Z,1013.34
2023-01-03T01:07:58.694Z,1013.34
2023-01-03T01:08:30.698Z,1013.34
2023-01-03T01:09:02.584Z,1013.04
2023-01-03T01:09:34.231Z,1013.24
2023-01-03T01:09:50.506Z,1013.24
2023-01-03T01:10:23.448Z,1013.24
2023-01-03T01:10:40.537Z,1013.24
2023-01-03T01:11:10.593Z,1013.24
2023-01-03T01:11:34.255Z,1013.04
2023-01-03T01:11:58.716Z,1013.04
2023-01-03T01:12:31.275Z,1013.04
2023-01-03T01:13:02.562Z,1013.34
2023-01-03T01:13:35.991Z,1013.14
2023-01-03T01:14:06.645Z,1013.14
2023-01-03T01:14:33.970Z,1013.34
2023-01-03T01:15:10.862Z,1013.34
2023-01-03T01:15:34.142Z,1013.14
2023-01-03T01:16:00.310Z,1013.14
2023-01-03T01:16:30.751Z,1013.14
2023-01-03T01:17:03.997Z,1013.14
2023-01-03T01:17:34.345Z,1013.24
2023-01-03T01:18:07.220Z,1013.24
2023-01-03T01:18:34.027Z,1013.04
2023-01-03T01:18:54.611Z,1013.04
2023-01-03T01:19:26.583Z,1013.04
2023-01-03T01:19:58.610Z,1013.24
2023-01-03T01:20:30.783Z,1013.24
2023-01-03T01:21:02.568Z,1013.34
2023-01-03T01:21:34.025Z,1013.34
2023-01-03T01:21:50.537Z,1013.34
2023-01-03T01:22:23.287Z,1013.34
2023-01-03T01:22:40.447Z,1013.24
2023-01-03T01:23:10.578Z,1013.24
2023-01-03T01:23:34.032Z,1013.24
2023-01-03T01:23:58.706Z,1013.24
2023-01-03T01:24:31.297Z,1013.24
2023-01-03T01:25:02.671Z,1013.14
2023-01-03T01:25:34.860Z,1013.61
2023-01-03T01:26:06.776Z,1013.61
2023-01-03T01:26:34.821Z,1013.51
2023-01-03T01:26:54.555Z,1013.51
2023-01-03T01:27:26.594Z,1013.51
2023-01-03T01:27:59.278Z,1013.34
2023-01-03T01:28:30.730Z,1013.34
2023-01-03T01:29:03.351Z,1013.34
2023-01-03T01:29:34.429Z,1013.34
2023-01-03T01:29:50.823Z,1013.34
2023-01-03T01:30:22.885Z,1013.34
2023-01-03T01:30:39.695Z,1013.71
2023-01-03T01:31:11.411Z,1013.71
2023-01-03T01:31:34.201Z,1013.34
2023-01-03T01:31:58.676Z,1013.34
2023-01-03T01:32:30.600Z,1013.34
2023-01-03T01:33:02.616Z,1013.41
2023-01-03T01:33:34.000Z,1013.34
2023-01-03T01:33:50.559Z,1013.34
2023-01-03T01:34:24.125Z,1013.34
2023-01-03T01:34:41.601Z,1013.14
2023-01-03T01:35:10.876Z,1013.14
2023-01-03T01:35:34.091Z,1013.41
2023-01-03T01:35:58.741Z,1013.41
2023-01-03T01:36:31.359Z,1013.41
2023-01-03T01:37:02.661Z,1013.34
2023-01-03T01:37:35.304Z,1013.51
2023-01-03T01:38:06.641Z,1013.51
2023-01-03T01:38:34.124Z,1013.41
2023-01-03T01:38:54.685Z,1013.41
2023-01-03T01:39:26.661Z,1013.41
2023-01-03T01:39:59.325Z,1013.41
2023-01-03T01:40:30.859Z,1013.41
2023-01-03T01:41:03.366Z,1013.51
2023-01-03T01:41:34.073Z,1013.34
2023-01-03T01:41:51.812Z,1013.34
2023-01-03T01:42:27.370Z,1013.34
2023-01-03T01:42:39.746Z,1013.24
2023-01-03T01:43:12.622Z,1013.24
2023-01-03T01:43:34.177Z,1013.41
2023-01-03T01:43:58.617Z,1013.41
2023-01-03T01:44:31.563Z,1013.41
2023-01-03T01:45:03.038Z,1013.51
2023-01-03T01:45:34.837Z,1013.41
2023-01-03T01:46:06.695Z,1013.41
2023-01-03T01:46:34.140Z,1013.51
2023-01-03T01:46:54.818Z,1013.51
2023-01-03T01:47:27.820Z,1013.51
2023-01-03T01:47:58.804Z,1013.41
2023-01-03T01:48:31.372Z,1013.41
2023-01-03T01:49:02.725Z,1013.51
2023-01-03T01:49:35.728Z,1013.41
2023-01-03T01:50:06.769Z,1013.41
2023-01-03T01:50:34.025Z,1013.51
2023-01-03T01:50:54.798Z,1013.51
2023-01-03T01:51:26.608Z,1013.51
2023-01-03T01:51:59.334Z,1013.41
2023-01-03T01:52:30.592Z,1013.41
2023-01-03T01:53:03.382Z,1013.51
2023-01-03T01:53:34.775Z,1013.61
2023-01-03T01:54:07.433Z,1013.61
2023-01-03T01:54:34.065Z,1013.51
2023-01-03T01:54:54.657Z,1013.51
2023-01-03T01:55:26.822Z,1013.51
2023-01-03T01:55:58.570Z,1013.71
2023-01-03T01:56:30.601Z,1013.71
2023-01-03T01:57:02.659Z,1013.61
2023-01-03T01:57:34.145Z,1013.61
2023-01-03T01:58:06.547Z,1013.61
2023-01-03T01:58:34.046Z,1013.61
2023-01-03T01:58:54.672Z,1013.61
2023-01-03T01:59:27.223Z,1013.61
2023-01-03T01:59:58.565Z,1013.61
2023-01-03T02:00:31.570Z,1013.61
2023-01-03T02:01:02.644Z,1013.61
2023-01-03T02:01:35.566Z,1013.71
2023-01-03T02:02:06.757Z,1013.71
2023-01-03T02:02:34.318Z,1013.82
2023-01-03T02:02:54.784Z,1013.82
2023-01-03T02:03:26.655Z,1013.82
2023-01-03T02:03:59.407Z,1013.82
2023-01-03T02:04:30.645Z,1013.82
2023-01-03T02:05:04.583Z,1013.61
2023-01-03T02:05:34.084Z,1013.82
2023-01-03T02:05:50.686Z,1013.82
2023-01-03T02:06:23.692Z,1013.82
2023-01-03T02:06:39.749Z,1013.61
2023-01-03T02:07:11.397Z,1013.61
2023-01-03T02:07:34.680Z,1013.51
2023-01-03T02:07:58.631Z,1013.51
2023-01-03T02:08:30.607Z,1013.51
2023-01-03T02:09:02.608Z,1013.51
2023-01-03T02:09:34.098Z,1013.71
2023-01-03T02:09:50.578Z,1013.71
2023-01-03T02:10:23.578Z,1013.71
2023-01-03T02:10:40.598Z,1013.51
2023-01-03T02:11:10.687Z,1013.51
2023-01-03T02:11:38.530Z,1013.51
2023-01-03T02:11:58.685Z,1013.51
2023-01-03T02:12:31.290Z,1013.51
2023-01-03T02:13:02.595Z,1013.71
2023-01-03T02:13:35.348Z,1013.51
2023-01-03T02:14:06.818Z,1013.51
2023-01-03T02:14:33.950Z,1013.71
2023-01-03T02:14:54.730Z,1013.71
2023-01-03T02:15:26.792Z,1013.71
2023-01-03T02:15:59.386Z,1013.82
2023-01-03T02:16:30.723Z,1013.82
2023-01-03T02:17:03.381Z,1013.71
2023-01-03T02:17:34.040Z,1013.82
2023-01-03T02:17:50.520Z,1013.82
2023-01-03T02:18:22.683Z,1013.82
2023-01-03T02:18:39.743Z,1013.51
2023-01-03T02:19:11.227Z,1013.51
2023-01-03T02:19:34.122Z,1013.71
2023-01-03T02:19:58.669Z,1013.71
2023-01-03T02:20:30.782Z,1013.71
2023-01-03T02:21:02.660Z,1013.51
2023-01-03T02:21:33.935Z,1013.61
2023-01-03T02:21:50.576Z,1013.61
2023-01-03T02:22:23.144Z,1013.61
2023-01-03T02:22:40.284Z,1013.82
2023-01-03T02:23:10.650Z,1013.82
2023-01-03T02:23:34.542Z,1013.71
2023-01-03T02:23:58.726Z,1013.71
2023-01-03T02:24:31.183Z,1013.71
2023-01-03T02:25:02.770Z,1013.61
2023-01-03T02:25:35.930Z,1013.71
2023-01-03T02:26:06.694Z,1013.71
2023-01-03T02:26:33.944Z,1013.61
2023-01-03T02:26:54.585Z,1013.61
2023-01-03T02:27:26.604Z,1013.61
2023-01-03T02:27:59.325Z,1013.71
2023-01-03T02:28:30.771Z,1013.71
2023-01-03T02:29:03.448Z,1013.71
2023-01-03T02:29:34.002Z,1013.71
2023-01-03T02:29:50.604Z,1013.71
2023-01-03T02:30:23.012Z,1013.71
2023-01-03T02:30:39.826Z,1013.61
2023-01-03T02:31:13.332Z,1013.61
2023-01-03T02:31:34.156Z,1013.82
2023-01-03T02:31:58.669Z,1013.82
2023-01-03T02:32:30.661Z,1013.82
2023-01-03T02:33:02.698Z,1013.82
2023-01-03T02:33:33.987Z,1013.51
2023-01-03T02:33:50.553Z,1013.51
2023-01-03T02:34:23.369Z,1013.51
2023-01-03T02:34:40.527Z,1013.61
2023-01-03T02:35:10.806Z,1013.61
2023-01-03T02:35:35.130Z,1013.71
2023-01-03T02:35:58.796Z,1013.71
2023-01-03T02:36:31.412Z,1013.71
2023-01-03T02:37:02.627Z,1013.82
2023-01-03T02:37:35.057Z,1013.82
2023-01-03T02:38:06.681Z,1013.82
2023-01-03T02:38:34.148Z,1013.61
2023-01-03T02:38:54.626Z,1013.61
2023-01-03T02:39:26.645Z,1013.61
2023-01-03T02:39:59.292Z,1013.34
2023-01-03T02:40:31.295Z,1013.34
2023-01-03T02:41:03.447Z,1013.61
2023-01-03T02:41:34.011Z,1013.71
2023-01-03T02:41:50.488Z,1013.71
2023-01-03T02:42:22.636Z,1013.71
2023-01-03T02:42:39.712Z,1013.51
2023-01-03T02:43:11.356Z,1013.51
2023-01-03T02:43:34.087Z,1013.71
2023-01-03T02:43:59.371Z,1013.71
2023-01-03T02:44:30.615Z,1013.71
2023-01-03T02:45:02.910Z,1013.61
2023-01-03T02:45:34.300Z,1013.61
2023-01-03T02:46:06.678Z,1013.61
2023-01-03T02:46:34.167Z,1013.71
2023-01-03T02:46:54.705Z,1013.71
2023-01-03T02:47:27.652Z,1013.71
2023-01-03T02:47:58.654Z,1013.71
2023-01-03T02:48:31.348Z,1013.71
2023-01-03T02:49:02.942Z,1013.71
2023-01-03T02:49:39.610Z,1013.71
2023-01-03T02:50:06.844Z,1013.71
2023-01-03T02:50:34.083Z,1013.71
2023-01-03T02:50:54.822Z,1013.71
2023-01-03T02:51:26.676Z,1013.71
2023-01-03T02:51:59.439Z,1013.61
2023-01-03T02:52:30.663Z,1013.61
2023-01-03T02:53:03.287Z,1013.82
2023-01-03T02:53:34.183Z,1013.71
2023-01-03T02:53:50.545Z,1013.71
2023-01-03T02:54:34.811Z,1013.61
2023-01-03T02:54:54.642Z,1013.61
2023-01-03T02:55:26.710Z,1013.61
2023-01-03T02:55:58.623Z,1013.71
2023-01-03T02:56:30.852Z,1013.71
2023-01-03T02:57:02.852Z,1013.82
2023-01-03T02:57:34.364Z,1013.51
2023-01-03T02:57:51.438Z,1013.51
2023-01-03T02:58:22.717Z,1013.51
2023-01-03T02:58:39.824Z,1013.61
2023-01-03T02:59:10.713Z,1013.61
2023-01-03T02:59:34.195Z,1013.92
2023-01-03T02:59:59.358Z,1013.92
2023-01-03T03:00:34.236Z,1013.71
2023-01-03T03:01:03.284Z,1013.71
2023-01-03T03:01:35.020Z,1013.71
2023-01-03T03:02:07.643Z,1013.71
2023-01-03T03:02:34.330Z,1013.92
2023-01-03T03:02:54.781Z,1013.92
2023-01-03T03:03:26.662Z,1013.92
2023-01-03T03:03:58.577Z,1013.82
2023-01-03T03:04:30.704Z,1013.82
2023-01-03T03:05:02.874Z,1013.61
2023-01-03T03:05:34.016Z,1013.71
2023-01-03T03:05:51.208Z,1013.71
2023-01-03T03:06:23.364Z,1013.71
2023-01-03T03:06:40.501Z,1013.71
2023-01-03T03:07:10.712Z,1013.71
2023-01-03T03:07:34.546Z,1013.61
2023-01-03T03:07:58.798Z,1013.61
2023-01-03T03:08:31.292Z,1013.61
2023-01-03T03:09:02.784Z,1013.71
2023-01-03T03:09:35.154Z,1013.51
2023-01-03T03:10:06.753Z,1013.51
2023-01-03T03:10:34.041Z,1013.71
2023-01-03T03:10:54.796Z,1013.71
2023-01-03T03:11:26.550Z,1013.71
2023-01-03T03:12:00.659Z,1013.82
2023-01-03T03:12:30.660Z,1013.82
2023-01-03T03:13:03.244Z,1013.61
2023-01-03T03:13:34.078Z,1013.71
2023-01-03T03:13:50.537Z,1013.71
2023-01-03T03:14:22.677Z,1013.71
2023-01-03T03:14:39.916Z,1013.61
2023-01-03T03:15:12.325Z,1013.61
2023-01-03T03:15:35.418Z,1013.61
2023-01-03T03:15:58.796Z,1013.61
2023-01-03T03:16:30.897Z,1013.61
2023-01-03T03:17:02.662Z,1013.51
2023-01-03T03:17:34.240Z,1013.71
2023-01-03T03:17:50.578Z,1013.71
2023-01-03T03:18:23.495Z,1013.71
2023-01-03T03:18:40.732Z,1013.71
2023-01-03T03:19:10.672Z,1013.71
2023-01-03T03:19:34.201Z,1013.71
2023-01-03T03:20:03.164Z,1013.71
2023-01-03T03:20:31.666Z,1013.71
2023-01-03T03:21:02.735Z,1013.61
2023-01-03T03:21:36.005Z,1013.71
2023-01-03T03:22:06.736Z,1013.71
2023-01-03T03:22:33.956Z,1013.71
2023-01-03T03:22:54.754Z,1013.71
2023-01-03T03:23:26.558Z,1013.71
2023-01-03T03:23:59.375Z,1013.51
2023-01-03T03:24:30.705Z,1013.51
2023-01-03T03:25:03.457Z,1013.61
2023-01-03T03:25:34.198Z,1013.51
2023-01-03T03:25:50.663Z,1013.51
2023-01-03T03:26:22.788Z,1013.51
2023-01-03T03:26:39.924Z,1013.71
2023-01-03T03:27:12.107Z,1013.71
2023-01-03T03:27:34.212Z,1013.92
2023-01-03T03:27:58.708Z,1013.92
2023-01-03T03:28:30.709Z,1013.92
2023-01-03T03:29:02.709Z,1013.71
2023-01-03T03:29:34.169Z,1013.61
2023-01-03T03:29:50.698Z,1013.61
2023-01-03T03:30:23.608Z,1013.61
2023-01-03T03:30:40.476Z,1013.61
2023-01-03T03:31:10.951Z,1013.61
2023-01-03T03:31:34.251Z,1013.51
2023-01-03T03:31:58.662Z,1013.51
2023-01-03T03:32:31.361Z,1013.51
2023-01-03T03:33:02.647Z,1013.51
2023-01-03T03:33:34.858Z,1013.71
2023-01-03T03:34:06.819Z,1013.71
2023-01-03T03:34:34.623Z,1013.82
2023-01-03T03:34:54.536Z,1013.82
2023-01-03T03:35:26.801Z,1013.82
2023-01-03T03:35:59.386Z,1013.71
2023-01-03T03:36:30.610Z,1013.71
2023-01-03T03:37:03.391Z,1013.71
2023-01-03T03:37:34.089Z,1013.82
2023-01-03T03:37:50.550Z,1013.82
2023-01-03T03:38:22.763Z,1013.82
2023-01-03T03:38:39.916Z,1013.51
2023-01-03T03:39:11.362Z,1013.51
2023-01-03T03:39:35.537Z,1013.71
2023-01-03T03:39:58.755Z,1013.71
2023-01-03T03:40:31.098Z,1013.71
2023-01-03T03:41:02.648Z,1013.61
2023-01-03T03:41:34.990Z,1013.51
2023-01-03T03:42:06.712Z,1013.51
2023-01-03T03:42:34.113Z,1013.61
2023-01-03T03:42:54.586Z,1013.61
2023-01-03T03:43:27.540Z,1013.61
2023-01-03T03:43:58.715Z,1013.51
2023-01-03T03:44:31.404Z,1013.51
2023-01-03T03:45:03.124Z,1013.61
2023-01-03T03:45:34.988Z,1013.51
2023-01-03T03:46:06.660Z,1013.51
2023-01-03T03:46:34.115Z,1013.51
2023-01-03T03:46:55.572Z,1013.51
2023-01-03T03:47:26.721Z,1013.51
2023-01-03T03:48:00.425Z,1013.34
2023-01-03T03:48:33.988Z,1013.41
2023-01-03T03:49:03.410Z,1013.41
2023-01-03T03:49:34.223Z,1013.41
2023-01-03T03:49:50.519Z,1013.41
2023-01-03T03:50:22.729Z,1013.41
2023-01-03T03:50:39.767Z,1013.41
2023-01-03T03:51:11.362Z,1013.41
2023-01-03T03:51:34.354Z,1013.41
2023-01-03T03:51:59.140Z,1013.41
2023-01-03T03:52:30.669Z,1013.41
2023-01-03T03:53:02.698Z,1013.71
2023-01-03T03:53:34.152Z,1013.51
2023-01-03T03:53:50.502Z,1013.51
2023-01-03T03:54:23.346Z,1013.51
2023-01-03T03:54:40.451Z,1013.51
2023-01-03T03:55:10.882Z,1013.51
2023-01-03T03:55:34.773Z,1013.71
2023-01-03T03:55:58.792Z,1013.71
2023-01-03T03:56:32.116Z,1013.71
2023-01-03T03:57:02.830Z,1013.51
2023-01-03T03:57:36.544Z,1013.71
2023-01-03T03:58:06.625Z,1013.71
2023-01-03T03:58:34.115Z,1013.71
2023-01-03T03:58:54.646Z,1013.71
2023-01-03T03:59:26.641Z,1013.71
2023-01-03T04:00:00.011Z,1013.51
2023-01-03T04:00:30.987Z,1013.51
2023-01-03T04:01:03.775Z,1013.82
2023-01-03T04:01:34.491Z,1013.61
2023-01-03T04:02:07.505Z,1013.61
2023-01-03T04:02:34.085Z,1013.61
2023-01-03T04:02:54.777Z,1013.61
2023-01-03T04:03:26.740Z,1013.61
2023-01-03T04:03:59.147Z,1013.71
2023-01-03T04:04:30.679Z,1013.71
2023-01-03T04:05:02.962Z,1013.71
2023-01-03T04:05:34.194Z,1013.71
2023-01-03T04:05:50.639Z,1013.71
2023-01-03T04:06:22.696Z,1013.71
2023-01-03T04:06:54.672Z,1013.92
2023-01-03T04:07:26.619Z,1013.92
2023-01-03T04:07:59.642Z,1013.51
2023-01-03T04:08:30.692Z,1013.51
2023-01-03T04:09:02.742Z,1013.51
2023-01-03T04:09:34.413Z,1013.51
2023-01-03T04:09:50.670Z,1013.51
2023-01-03T04:10:23.645Z,1013.51
2023-01-03T04:10:40.630Z,1013.61
2023-01-03T04:11:10.770Z,1013.61
2023-01-03T04:11:34.586Z,1013.82
2023-01-03T04:11:58.603Z,1013.82
2023-01-03T04:12:31.400Z,1013.82
2023-01-03T04:13:02.739Z,1013.61
2023-01-03T04:13:35.504Z,1013.51
2023-01-03T04:14:06.637Z,1013.51
2023-01-03T04:14:34.386Z,1013.61
2023-01-03T04:14:54.964Z,1013.61
2023-01-03T04:15:26.910Z,1013.61
2023-01-03T04:15:59.582Z,1013.51
2023-01-03T04:16:30.716Z,1013.51
2023-01-03T04:17:03.376Z,1013.82
2023-01-03T04:17:34.238Z,1013.71
2023-01-03T04:17:50.491Z,1013.71
2023-01-03T04:18:22.755Z,1013.71
2023-01-03T04:18:39.833Z,1013.82
2023-01-03T04:19:11.268Z,1013.82
2023-01-03T04:19:34.077Z,1013.41
2023-01-03T04:19:58.685Z,1013.41
2023-01-03T04:20:30.864Z,1013.41
2023-01-03T04:21:02.865Z,1013.71
2023-01-03T04:21:34.186Z,1013.71
2023-01-03T04:21:50.777Z,1013.71
2023-01-03T04:22:23.461Z,1013.71
2023-01-03T04:22:40.581Z,1013.51
2023-01-03T04:23:10.633Z,1013.51
2023-01-03T04:23:34.184Z,1013.61
2023-01-03T04:23:58.682Z,1013.61
2023-01-03T04:24:32.332Z,1013.61
2023-01-03T04:25:02.726Z,1013.61
2023-01-03T04:25:35.604Z,1013.61
2023-01-03T04:26:06.754Z,1013.61
2023-01-03T04:26:34.567Z,1013.51
2023-01-03T04:26:56.341Z,1013.51
2023-01-03T04:27:26.636Z,1013.51
2023-01-03T04:27:59.585Z,1013.61
2023-01-03T04:28:30.867Z,1013.61
2023-01-03T04:29:03.426Z,1013.61
2023-01-03T04:29:39.226Z,1013.51
2023-01-03T04:30:07.753Z,1013.51
2023-01-03T04:30:33.992Z,1013.51
2023-01-03T04:30:54.768Z,1013.51
2023-01-03T04:31:26.764Z,1013.51
2023-01-03T04:31:59.815Z,1013.71
2023-01-03T04:32:30.711Z,1013.71
2023-01-03T04:33:02.624Z,1013.71
2023-01-03T04:33:34.178Z,1013.51
2023-01-03T04:33:51.409Z,1013.51
2023-01-03T04:34:23.340Z,1013.51
2023-01-03T04:34:40.485Z,1013.71
2023-01-03T04:35:10.767Z,1013.71
2023-01-03T04:35:34.166Z,1013.51
2023-01-03T04:35:58.841Z,1013.51
2023-01-03T04:36:31.333Z,1013.51
2023-01-03T04:37:02.603Z,1013.71
2023-01-03T04:37:36.485Z,1013.41
2023-01-03T04:38:06.749Z,1013.41
2023-01-03T04:38:34.555Z,1013.41
2023-01-03T04:38:54.623Z,1013.41
2023-01-03T04:39:26.705Z,1013.41
2023-01-03T04:39:59.250Z,1013.71
2023-01-03T04:40:30.850Z,1013.71
2023-01-03T04:41:04.491Z,1013.51
2023-01-03T04:41:34.476Z,1013.61
2023-01-03T04:41:50.766Z,1013.61
2023-01-03T04:42:22.682Z,1013.61
2023-01-03T04:42:39.716Z,1013.61
2023-01-03T04:43:11.361Z,1013.61
2023-01-03T04:43:34.257Z,1013.51
2023-01-03T04:43:58.730Z,1013.51
2023-01-03T04:44:30.599Z,1013.51
2023-01-03T04:45:02.937Z,1013.41
2023-01-03T04:45:34.136Z,1013.61
2023-01-03T04:45:50.817Z,1013.61
2023-01-03T04:46:23.457Z,1013.61
2023-01-03T04:46:40.539Z,1013.51
2023-01-03T04:47:10.662Z,1013.51
2023-01-03T04:47:34.296Z,1013.51
2023-01-03T04:47:58.705Z,1013.51
2023-01-03T04:48:31.376Z,1013.51
2023-01-03T04:49:02.706Z,1013.61
2023-01-03T04:49:34.881Z,1013.61
2023-01-03T04:50:06.851Z,1013.61
2023-01-03T04:50:34.585Z,1013.61
2023-01-03T04:50:54.762Z,1013.61
2023-01-03T04:51:26.739Z,1013.61
2023-01-03T04:51:59.319Z,1013.51
2023-01-03T04:52:30.636Z,1013.51
2023-01-03T04:53:03.493Z,1013.51
2023-01-03T04:53:34.076Z,1013.61
2023-01-03T04:53:51.001Z,1013.61
2023-01-03T04:54:22.721Z,1013.61
2023-01-03T04:54:39.853Z,1013.51
2023-01-03T04:55:11.674Z,1013.51
2023-01-03T04:55:34.192Z,1013.61
2023-01-03T04:55:58.751Z,1013.61
2023-01-03T04:56:30.689Z,1013.61
2023-01-03T04:57:02.680Z,1013.61
2023-01-03T04:57:34.164Z,1013.61
2023-01-03T04:57:50.474Z,1013.61
2023-01-03T04:58:23.398Z,1013.61
2023-01-03T04:58:40.713Z,1013.61
2023-01-03T04:59:10.669Z,1013.61
2023-01-03T04:59:34.065Z,1013.51
2023-01-03T04:59:58.657Z,1013.51
2023-01-03T05:00:31.729Z,1013.51
2023-01-03T05:01:02.810Z,1013.61
2023-01-03T05:01:35.371Z,1013.34
2023-01-03T05:02:06.771Z,1013.34
2023-01-03T05:02:34.614Z,1013.41
2023-01-03T05:02:54.651Z,1013.41
2023-01-03T05:03:28.174Z,1013.41
2023-01-03T05:03:59.456Z,1013.51
2023-01-03T05:04:30.881Z,1013.51
2023-01-03T05:05:02.878Z,1013.61
2023-01-03T05:05:35.185Z,1013.41
2023-01-03T05:06:07.742Z,1013.41
2023-01-03T05:06:34.036Z,1013.41
2023-01-03T05:06:54.682Z,1013.41
2023-01-03T05:07:26.726Z,1013.41
2023-01-03T05:07:58.673Z,1013.34
2023-01-03T05:08:30.780Z,1013.34
2023-01-03T05:09:02.789Z,1013.41
2023-01-03T05:09:34.240Z,1013.41
2023-01-03T05:09:50.572Z,1013.41
2023-01-03T05:10:23.647Z,1013.41
2023-01-03T05:10:40.629Z,1013.61
2023-01-03T05:11:10.617Z,1013.61
2023-01-03T05:11:35.576Z,1013.51
2023-01-03T05:11:58.661Z,1013.51
2023-01-03T05:12:31.524Z,1013.51
2023-01-03T05:13:02.781Z,1013.61
2023-01-03T05:13:34.830Z,1013.34
2023-01-03T05:14:12.450Z,1013.34
2023-01-03T05:14:34.415Z,1013.51
2023-01-03T05:14:54.732Z,1013.51
2023-01-03T05:15:26.866Z,1013.51
2023-01-03T05:15:59.555Z,1013.34
2023-01-03T05:16:30.739Z,1013.34
2023-01-03T05:17:03.529Z,1013.34
2023-01-03T05:17:34.723Z,1013.41
2023-01-03T05:18:07.556Z,1013.41
2023-01-03T05:18:33.970Z,1013.34
2023-01-03T05:18:54.789Z,1013.34
2023-01-03T05:19:26.646Z,1013.34
2023-01-03T05:19:58.655Z,1013.24
2023-01-03T05:20:30.947Z,1013.24
2023-01-03T05:21:02.640Z,1013.34
2023-01-03T05:21:34.166Z,1013.34
2023-01-03T05:21:50.704Z,1013.34
2023-01-03T05:22:23.586Z,1013.34
2023-01-03T05:22:40.651Z,1013.24
2023-01-03T05:23:10.674Z,1013.24
2023-01-03T05:23:34.111Z,1013.24
2023-01-03T05:23:58.687Z,1013.24
2023-01-03T05:24:31.476Z,1013.24
2023-01-03T05:25:02.954Z,1013.41
2023-01-03T05:25:34.918Z,1013.24
2023-01-03T05:26:06.742Z,1013.24
2023-01-03T05:26:33.967Z,1013.34
2023-01-03T05:26:54.789Z,1013.34
2023-01-03T05:27:26.625Z,1013.34
2023-01-03T05:27:59.700Z,1013.24
2023-01-03T05:28:31.613Z,1013.24
2023-01-03T05:29:03.418Z,1013.24
2023-01-03T05:29:34.492Z,1013.34
2023-01-03T05:30:07.711Z,1013.34
2023-01-03T05:30:34.157Z,1013.51
2023-01-03T05:30:54.885Z,1013.51
2023-01-03T05:31:26.789Z,1013.51
2023-01-03T05:31:58.783Z,1013.41
2023-01-03T05:32:30.709Z,1013.41
2023-01-03T05:33:02.767Z,1013.34
2023-01-03T05:33:34.637Z,1013.24
2023-01-03T05:34:06.900Z,1013.24
2023-01-03T05:34:33.989Z,1013.41
2023-01-03T05:34:55.542Z,1013.41
2023-01-03T05:35:27.638Z,1013.41
2023-01-03T05:35:58.736Z,1013.41
2023-01-03T05:36:31.356Z,1013.41
2023-01-03T05:37:02.851Z,1013.41
2023-01-03T05:37:38.417Z,1013.41
2023-01-03T05:38:06.748Z,1013.41
2023-01-03T05:38:33.993Z,1013.24
2023-01-03T05:38:54.747Z,1013.24
2023-01-03T05:39:26.798Z,1013.24
2023-01-03T05:40:00.551Z,1013.51
2023-01-03T05:40:40.918Z,1013.51
2023-01-03T05:41:03.576Z,1013.61
2023-01-03T05:41:34.128Z,1013.51
2023-01-03T05:41:50.571Z,1013.51
2023-01-03T05:42:22.728Z,1013.51
2023-01-03T05:42:39.862Z,1013.41
2023-01-03T05:43:11.374Z,1013.41
2023-01-03T05:43:34.735Z,1013.24
2023-01-03T05:43:58.610Z,1013.24